Colorado Star — 9HA2189 — position and weather

sailwx.info

Track history (hours):
 
Tides and Currents Weather Stations Pressure Air Temp Water Temp Dewpoint Dewpoint Depression Visibility Wind Speed Wind Dir Waves Ship Positions

Colorado Star

Last reported at 2016-Jun-26 18:31 UTC. Time now 2016-Jun-26 19:13 UTC.
Position N 52°25' E 004°46'.

Length 128 m; draft 8.1 m.

Type: Ship. MMSI: 248127000.

Date/timePositionNaut miles runAvg speedWind from/ knotsBaromVisibWave heightAir tempDewpointWater temp
2016-Jun-26 18:31N 52°25' E 004°46'0 0.0
2016-Jun-26 17:31N 52°25' E 004°46'0 0.0
2016-Jun-26 16:31N 52°25' E 004°46'0 0.0
2016-Jun-26 15:31N 52°25' E 004°46'0 0.0
2016-Jun-26 14:31N 52°25' E 004°46'0 0.0
2016-Jun-26 13:25N 52°25' E 004°46'0 0.0
2016-Jun-26 12:31N 52°25' E 004°46'0 0.0
2016-Jun-26 11:31N 52°25' E 004°46'0 0.0
2016-Jun-26 10:31N 52°25' E 004°46'0 0.0
2016-Jun-26 09:28N 52°25' E 004°46'0 0.0
2016-Jun-26 08:28N 52°25' E 004°46'0 0.0
2016-Jun-26 07:31N 52°25' E 004°46'0 0.0
2016-Jun-26 06:31N 52°25' E 004°46'0 0.0
2016-Jun-26 05:31N 52°25' E 004°46'0 0.0
2016-Jun-26 04:31N 52°25' E 004°46'0 0.0
2016-Jun-26 03:31N 52°25' E 004°46'0 0.0
2016-Jun-26 02:31N 52°25' E 004°46'0 0.0
2016-Jun-26 01:31N 52°25' E 004°46'0 0.0
2016-Jun-26 00:31N 52°25' E 004°46'0 0.0
2016-Jun-25 23:31N 52°25' E 004°46'0 0.0
2016-Jun-25 22:31N 52°25' E 004°46'0 0.0
2016-Jun-25 21:31N 52°25' E 004°46'0 0.0
2016-Jun-25 20:31N 52°25' E 004°46'0 0.0
2016-Jun-25 19:31N 52°25' E 004°46'0 0.0
2016-Jun-25 18:31N 52°25' E 004°46'0 0.0
2016-Jun-25 17:31N 52°25' E 004°46'0 0.0
2016-Jun-25 16:31N 52°25' E 004°46'0 0.0
2016-Jun-25 15:31N 52°25' E 004°46'0 0.0
2016-Jun-25 14:31N 52°25' E 004°46'0 0.0
2016-Jun-25 13:31N 52°25' E 004°46'0 0.0
2016-Jun-25 12:31N 52°25' E 004°46'0 0.0
2016-Jun-25 11:31N 52°25' E 004°46'0 0.0
2016-Jun-25 10:31N 52°25' E 004°46'0 0.0
2016-Jun-25 09:31N 52°25' E 004°46'0 0.0
2016-Jun-25 08:31N 52°25' E 004°46'0 0.0
2016-Jun-25 07:31N 52°25' E 004°46'0 0.0
2016-Jun-25 06:31N 52°25' E 004°46'0 0.0
2016-Jun-25 05:31N 52°25' E 004°46'0 0.0
2016-Jun-25 04:31N 52°25' E 004°46'0 0.0
2016-Jun-25 03:31N 52°25' E 004°46'0 0.0
2016-Jun-25 02:31N 52°25' E 004°46'0 0.0
2016-Jun-25 01:31N 52°25' E 004°46'0 0.0
2016-Jun-25 00:31N 52°25' E 004°46'0 0.0
2016-Jun-24 23:31N 52°25' E 004°46'0 0.0
2016-Jun-24 22:28N 52°25' E 004°46'0 0.0
2016-Jun-24 21:31N 52°25' E 004°46'0 0.0
2016-Jun-24 20:31N 52°25' E 004°46'0 0.0
2016-Jun-24 19:31N 52°25' E 004°46'0 0.0
2016-Jun-24 18:31N 52°25' E 004°46'0 0.0
2016-Jun-24 17:28N 52°25' E 004°46'0 0.0
2016-Jun-24 16:28N 52°25' E 004°46'0 0.0
2016-Jun-24 15:31N 52°25' E 004°46'0 0.0
2016-Jun-24 14:31N 52°25' E 004°46'0 0.0
2016-Jun-24 13:31N 52°25' E 004°46'0 0.0
2016-Jun-24 12:31N 52°25' E 004°46'0 0.0
2016-Jun-24 11:31N 52°25' E 004°46'0 0.0
2016-Jun-24 10:31N 52°25' E 004°46'0 0.0
2016-Jun-24 09:28N 52°25' E 004°46'0 0.0
2016-Jun-24 08:31N 52°25' E 004°46'0 0.0
2016-Jun-24 07:31N 52°25' E 004°46'0 0.0
2016-Jun-24 04:31N 52°25' E 004°46'0 0.0
2016-Jun-24 03:31N 52°25' E 004°46'0 0.0
2016-Jun-24 02:31N 52°25' E 004°46'0 0.2
2016-Jun-24 01:33N 52°25' E 004°47'6 6.0
2016-Jun-24 00:34N 52°28' E 004°38'2 1.5
2016-Jun-23 23:33N 52°28' E 004°36'2 2.5
2016-Jun-23 22:34N 52°28' E 004°31'7 7.1
2016-Jun-23 21:33N 52°28' E 004°20'7 7.3
2016-Jun-23 20:33N 52°30' E 004°08'1111.3
2016-Jun-23 19:33N 52°41' E 004°01'2310.2
2016-Jun-23 17:17N 53°03' E 004°11'911.9
2016-Jun-23 16:33N 53°09' E 004°22'2612.5
2016-Jun-23 14:31N 53°30' E 004°46'1313.4
2016-Jun-23 13:33N 53°35' E 005°06'1312.6
2016-Jun-23 12:33N 53°39' E 005°26'1212.3
2016-Jun-23 11:33N 53°43' E 005°46'1211.8
2016-Jun-23 10:33N 53°46' E 006°05'1110.9
2016-Jun-23 09:33N 53°49' E 006°23'1010.2
2016-Jun-23 08:33N 53°52' E 006°39'1111.2
2016-Jun-23 07:34N 53°55' E 006°58'2613.0
2016-Jun-23 05:33N 54°01' E 007°41'1212.4
2016-Jun-23 04:34N 54°01' E 008°02'1414.1
2016-Jun-23 03:33N 53°59' E 008°26'1313.2
2016-Jun-23 02:33N 53°52' E 008°44'1110.9
2016-Jun-23 01:33N 53°52' E 009°03'4 3.8
2016-Jun-23 00:33N 53°54' E 009°09'1 1.2
2016-Jun-22 23:33N 53°55' E 009°10'6 6.3
2016-Jun-22 22:33N 53°59' E 009°17'8 7.8
2016-Jun-22 21:31N 54°07' E 009°20'8 8.0
2016-Jun-22 20:32N 54°11' E 009°31'9 7.5
2016-Jun-22 19:17N 54°18' E 009°42'6 7.6
2016-Jun-22 18:33N 54°22' E 009°50'7 6.9
2016-Jun-22 17:33N 54°22' E 010°01'4 4.2
2016-Jun-22 16:33N 54°22' E 010°09'3 2.9
2016-Jun-22 15:33N 54°24' E 010°12'1010.4
2016-Jun-22 14:33N 54°32' E 010°24'1212.1
2016-Jun-22 13:33N 54°35' E 010°45'1211.9
2016-Jun-22 12:33N 54°36' E 011°05'1211.7
2016-Jun-22 11:33N 54°32' E 011°24'1212.2
2016-Jun-22 10:33N 54°27' E 011°43'1212.4
2016-Jun-22 09:33N 54°27' E 012°04'1010.3
2016-Jun-22 08:33N 54°35' E 012°15'1211.7
2016-Jun-22 07:33N 54°43' E 012°30'1212.5
2016-Jun-22 06:33N 54°48' E 012°50'1312.9
2016-Jun-22 05:33N 54°47' E 013°12'1312.4
2016-Jun-22 04:33N 54°47' E 013°34'1212.4
2016-Jun-22 03:33N 54°43' E 013°54'1312.5
2016-Jun-22 02:33N 54°39' E 014°15'1312.1
2016-Jun-22 01:31N 54°39' E 014°37'1212.2
2016-Jun-22 00:33N 54°41' E 014°57'1212.3
2016-Jun-21 23:32N 54°42' E 015°18'1212.3
2016-Jun-21 22:31N 54°44' E 015°40'1212.3
2016-Jun-21 21:33N 54°46' E 016°00'7312.2
2016-Jun-21 15:33N 54°58' E 018°06'1212.0
2016-Jun-21 14:33N 54°58' E 018°27'1212.0
2016-Jun-21 13:33N 54°53' E 018°45'1212.2
2016-Jun-21 12:34N 54°45' E 019°02'1111.4
2016-Jun-21 11:34N 54°34' E 019°05'1110.3
2016-Jun-21 10:32N 54°25' E 018°55'4 4.2
2016-Jun-21 09:33N 54°25' E 018°48'3 2.7
2016-Jun-21 08:31N 54°24' E 018°43'0 0.0
2016-Jun-21 07:31N 54°24' E 018°43'0 0.0
2016-Jun-21 04:31N 54°24' E 018°43'0 0.0
2016-Jun-21 03:31N 54°24' E 018°43'0 0.0
2016-Jun-21 02:31N 54°24' E 018°43'0 0.0
2016-Jun-21 01:31N 54°24' E 018°43'0 0.0
2016-Jun-21 00:31N 54°24' E 018°43'0 0.0
2016-Jun-20 23:31N 54°24' E 018°43'0 0.0
2016-Jun-20 22:31N 54°24' E 018°43'0 0.0
2016-Jun-20 21:31N 54°24' E 018°43'0 0.0
2016-Jun-20 20:31N 54°24' E 018°43'0 0.0
2016-Jun-20 19:31N 54°24' E 018°43'0 0.0
2016-Jun-20 18:31N 54°24' E 018°43'0 0.0
2016-Jun-20 17:31N 54°24' E 018°43'0 0.0
2016-Jun-20 16:31N 54°24' E 018°43'0 0.0
2016-Jun-20 15:31N 54°24' E 018°43'0 0.0
2016-Jun-20 14:31N 54°24' E 018°43'0 0.0
2016-Jun-20 13:31N 54°24' E 018°43'0 0.0
2016-Jun-20 12:31N 54°24' E 018°43'0 0.0
2016-Jun-20 11:31N 54°24' E 018°43'0 0.0
2016-Jun-20 10:31N 54°24' E 018°43'0 0.0
2016-Jun-20 09:31N 54°24' E 018°43'1 0.7
2016-Jun-20 08:34N 54°24' E 018°44'10 9.7
2016-Jun-20 07:33N 54°29' E 018°58'1212.0
2016-Jun-20 06:34N 54°41' E 019°02'1312.6
2016-Jun-20 05:33N 54°52' E 018°53'1212.5
2016-Jun-20 04:33N 54°59' E 018°35'1211.6
2016-Jun-20 03:34N 55°01' E 018°15'1312.6
2016-Jun-20 02:33N 54°58' E 017°54'1312.6
2016-Jun-20 01:34N 54°54' E 017°33'12212.2
2016-Jun-19 15:33N 54°41' E 014°02'1212.5
2016-Jun-19 14:33N 54°49' E 013°45'3712.5
2016-Jun-19 11:34N 55°13' E 012°55'1211.7
2016-Jun-19 10:34N 55°20' E 012°38'1211.6
2016-Jun-19 09:34N 55°31' E 012°42'1010.4
2016-Jun-19 08:34N 55°41' E 012°38'0 0.0
2016-Jun-19 07:31N 55°41' E 012°38'0 0.0
2016-Jun-19 06:28N 55°41' E 012°38'0 0.0
2016-Jun-19 05:31N 55°41' E 012°38'0 0.0
2016-Jun-19 04:31N 55°41' E 012°38'0 0.0
2016-Jun-19 03:31N 55°41' E 012°38'0 0.0
2016-Jun-19 02:31N 55°41' E 012°38'0 0.0
2016-Jun-19 01:31N 55°41' E 012°38'0 0.0
2016-Jun-19 00:31N 55°41' E 012°38'0 0.0
2016-Jun-18 23:31N 55°41' E 012°38'0 0.0
2016-Jun-18 22:31N 55°41' E 012°38'0 0.0
2016-Jun-18 21:31N 55°41' E 012°38'0 0.0
2016-Jun-18 20:31N 55°41' E 012°38'0 0.0
2016-Jun-18 19:31N 55°41' E 012°38'0 0.0
2016-Jun-18 18:31N 55°41' E 012°38'0 0.0
2016-Jun-18 17:31N 55°41' E 012°38'0 0.0
2016-Jun-18 16:31N 55°41' E 012°38'0 0.0
2016-Jun-18 15:31N 55°41' E 012°38'0 0.0
2016-Jun-18 14:31N 55°41' E 012°38'0 0.0
2016-Jun-18 13:31N 55°41' E 012°38'0 0.0
2016-Jun-18 12:31N 55°41' E 012°38'0 0.0
2016-Jun-18 11:31N 55°41' E 012°38'0 0.5
2016-Jun-18 10:33N 55°42' E 012°38'1110.5
2016-Jun-18 09:33N 55°52' E 012°41'1110.6
2016-Jun-18 08:33N 56°02' E 012°39'1010.1
2016-Jun-18 07:33N 56°09' E 012°26'8 7.9
2016-Jun-18 06:33N 56°11' E 012°12'2 1.7
2016-Jun-18 05:33N 56°11' E 012°15'2 1.6
2016-Jun-18 04:33N 56°13' E 012°13'2210.9
2016-Jun-18 02:33N 56°32' E 011°56'1211.9
2016-Jun-18 01:33N 56°44' E 011°51'1211.6
2016-Jun-18 00:33N 56°55' E 011°46'1211.7
2016-Jun-17 23:33N 57°06' E 011°39'1211.6
2016-Jun-17 22:33N 57°17' E 011°31'1211.9
2016-Jun-17 21:33N 57°28' E 011°23'1211.8
2016-Jun-17 20:33N 57°36' E 011°07'9 9.2
2016-Jun-17 19:33N 57°45' E 011°05'1212.3
2016-Jun-17 18:33N 57°56' E 010°56'1211.8
2016-Jun-17 17:33N 57°57' E 010°34'1212.2
2016-Jun-17 16:33N 57°57' E 010°10'1212.4
2016-Jun-17 15:33N 57°54' E 009°48'1312.5
2016-Jun-17 14:32N 57°49' E 009°26'6112.0
2016-Jun-17 09:29N 57°35' E 007°35'3511.9
2016-Jun-17 06:33N 57°39' E 006°30'1312.5
2016-Jun-17 05:29N 57°48' E 006°11'1112.0
2016-Jun-17 04:33N 57°55' E 005°55'4911.8
2016-Jun-17 00:27N 58°28' E 004°48'1112.1
2016-Jun-16 23:33N 58°36' E 004°34'  
Track history (hours):
 
Tides and Currents Weather Stations Pressure Air Temp Water Temp Dewpoint Dewpoint Depression Visibility Wind Speed Wind Dir Waves Ship Positions

Colorado Star

Last reported at 2016-Jun-26 18:31 UTC. Time now 2016-Jun-26 19:13 UTC.
Position N 52°25' E 004°46'.

Length 128 m; draft 8.1 m.

Type: Ship. MMSI: 248127000.

Date/timePositionNaut miles runAvg speedWind from/ knotsBaromVisibWave heightAir tempDewpointWater temp
2016-Jun-26 18:31N 52°25' E 004°46'0 0.0
2016-Jun-26 17:31N 52°25' E 004°46'0 0.0
2016-Jun-26 16:31N 52°25' E 004°46'0 0.0
2016-Jun-26 15:31N 52°25' E 004°46'0 0.0
2016-Jun-26 14:31N 52°25' E 004°46'0 0.0
2016-Jun-26 13:25N 52°25' E 004°46'0 0.0
2016-Jun-26 12:31N 52°25' E 004°46'0 0.0
2016-Jun-26 11:31N 52°25' E 004°46'0 0.0
2016-Jun-26 10:31N 52°25' E 004°46'0 0.0
2016-Jun-26 09:28N 52°25' E 004°46'0 0.0
2016-Jun-26 08:28N 52°25' E 004°46'0 0.0
2016-Jun-26 07:31N 52°25' E 004°46'0 0.0
2016-Jun-26 06:31N 52°25' E 004°46'0 0.0
2016-Jun-26 05:31N 52°25' E 004°46'0 0.0
2016-Jun-26 04:31N 52°25' E 004°46'0 0.0
2016-Jun-26 03:31N 52°25' E 004°46'0 0.0
2016-Jun-26 02:31N 52°25' E 004°46'0 0.0
2016-Jun-26 01:31N 52°25' E 004°46'0 0.0
2016-Jun-26 00:31N 52°25' E 004°46'0 0.0
2016-Jun-25 23:31N 52°25' E 004°46'0 0.0
2016-Jun-25 22:31N 52°25' E 004°46'0 0.0
2016-Jun-25 21:31N 52°25' E 004°46'0 0.0
2016-Jun-25 20:31N 52°25' E 004°46'0 0.0
2016-Jun-25 19:31N 52°25' E 004°46'0 0.0
2016-Jun-25 18:31N 52°25' E 004°46'0 0.0
2016-Jun-25 17:31N 52°25' E 004°46'0 0.0
2016-Jun-25 16:31N 52°25' E 004°46'0 0.0
2016-Jun-25 15:31N 52°25' E 004°46'0 0.0
2016-Jun-25 14:31N 52°25' E 004°46'0 0.0
2016-Jun-25 13:31N 52°25' E 004°46'0 0.0
2016-Jun-25 12:31N 52°25' E 004°46'0 0.0
2016-Jun-25 11:31N 52°25' E 004°46'0 0.0
2016-Jun-25 10:31N 52°25' E 004°46'0 0.0
2016-Jun-25 09:31N 52°25' E 004°46'0 0.0
2016-Jun-25 08:31N 52°25' E 004°46'0 0.0
2016-Jun-25 07:31N 52°25' E 004°46'0 0.0
2016-Jun-25 06:31N 52°25' E 004°46'0 0.0
2016-Jun-25 05:31N 52°25' E 004°46'0 0.0
2016-Jun-25 04:31N 52°25' E 004°46'0 0.0
2016-Jun-25 03:31N 52°25' E 004°46'0 0.0
2016-Jun-25 02:31N 52°25' E 004°46'0 0.0
2016-Jun-25 01:31N 52°25' E 004°46'0 0.0
2016-Jun-25 00:31N 52°25' E 004°46'0 0.0
2016-Jun-24 23:31N 52°25' E 004°46'0 0.0
2016-Jun-24 22:28N 52°25' E 004°46'0 0.0
2016-Jun-24 21:31N 52°25' E 004°46'0 0.0
2016-Jun-24 20:31N 52°25' E 004°46'0 0.0
2016-Jun-24 19:31N 52°25' E 004°46'0 0.0
2016-Jun-24 18:31N 52°25' E 004°46'0 0.0
2016-Jun-24 17:28N 52°25' E 004°46'0 0.0
2016-Jun-24 16:28N 52°25' E 004°46'0 0.0
2016-Jun-24 15:31N 52°25' E 004°46'0 0.0
2016-Jun-24 14:31N 52°25' E 004°46'0 0.0
2016-Jun-24 13:31N 52°25' E 004°46'0 0.0
2016-Jun-24 12:31N 52°25' E 004°46'0 0.0
2016-Jun-24 11:31N 52°25' E 004°46'0 0.0
2016-Jun-24 10:31N 52°25' E 004°46'0 0.0
2016-Jun-24 09:28N 52°25' E 004°46'0 0.0
2016-Jun-24 08:31N 52°25' E 004°46'0 0.0
2016-Jun-24 07:31N 52°25' E 004°46'0 0.0
2016-Jun-24 04:31N 52°25' E 004°46'0 0.0
2016-Jun-24 03:31N 52°25' E 004°46'0 0.0
2016-Jun-24 02:31N 52°25' E 004°46'0 0.2
2016-Jun-24 01:33N 52°25' E 004°47'6 6.0
2016-Jun-24 00:34N 52°28' E 004°38'2 1.5
2016-Jun-23 23:33N 52°28' E 004°36'2 2.5
2016-Jun-23 22:34N 52°28' E 004°31'7 7.1
2016-Jun-23 21:33N 52°28' E 004°20'7 7.3
2016-Jun-23 20:33N 52°30' E 004°08'1111.3
2016-Jun-23 19:33N 52°41' E 004°01'2310.2
2016-Jun-23 17:17N 53°03' E 004°11'911.9
2016-Jun-23 16:33N 53°09' E 004°22'2612.5
2016-Jun-23 14:31N 53°30' E 004°46'1313.4
2016-Jun-23 13:33N 53°35' E 005°06'1312.6
2016-Jun-23 12:33N 53°39' E 005°26'1212.3
2016-Jun-23 11:33N 53°43' E 005°46'1211.8
2016-Jun-23 10:33N 53°46' E 006°05'1110.9
2016-Jun-23 09:33N 53°49' E 006°23'1010.2
2016-Jun-23 08:33N 53°52' E 006°39'1111.2
2016-Jun-23 07:34N 53°55' E 006°58'2613.0
2016-Jun-23 05:33N 54°01' E 007°41'1212.4
2016-Jun-23 04:34N 54°01' E 008°02'1414.1
2016-Jun-23 03:33N 53°59' E 008°26'1313.2
2016-Jun-23 02:33N 53°52' E 008°44'1110.9
2016-Jun-23 01:33N 53°52' E 009°03'4 3.8
2016-Jun-23 00:33N 53°54' E 009°09'1 1.2
2016-Jun-22 23:33N 53°55' E 009°10'6 6.3
2016-Jun-22 22:33N 53°59' E 009°17'8 7.8
2016-Jun-22 21:31N 54°07' E 009°20'8 8.0
2016-Jun-22 20:32N 54°11' E 009°31'9 7.5
2016-Jun-22 19:17N 54°18' E 009°42'6 7.6
2016-Jun-22 18:33N 54°22' E 009°50'7 6.9
2016-Jun-22 17:33N 54°22' E 010°01'4 4.2
2016-Jun-22 16:33N 54°22' E 010°09'3 2.9
2016-Jun-22 15:33N 54°24' E 010°12'1010.4
2016-Jun-22 14:33N 54°32' E 010°24'1212.1
2016-Jun-22 13:33N 54°35' E 010°45'1211.9
2016-Jun-22 12:33N 54°36' E 011°05'1211.7
2016-Jun-22 11:33N 54°32' E 011°24'1212.2
2016-Jun-22 10:33N 54°27' E 011°43'1212.4
2016-Jun-22 09:33N 54°27' E 012°04'1010.3
2016-Jun-22 08:33N 54°35' E 012°15'1211.7
2016-Jun-22 07:33N 54°43' E 012°30'1212.5
2016-Jun-22 06:33N 54°48' E 012°50'1312.9
2016-Jun-22 05:33N 54°47' E 013°12'1312.4
2016-Jun-22 04:33N 54°47' E 013°34'1212.4
2016-Jun-22 03:33N 54°43' E 013°54'1312.5
2016-Jun-22 02:33N 54°39' E 014°15'1312.1
2016-Jun-22 01:31N 54°39' E 014°37'1212.2
2016-Jun-22 00:33N 54°41' E 014°57'1212.3
2016-Jun-21 23:32N 54°42' E 015°18'1212.3
2016-Jun-21 22:31N 54°44' E 015°40'1212.3
2016-Jun-21 21:33N 54°46' E 016°00'7312.2
2016-Jun-21 15:33N 54°58' E 018°06'1212.0
2016-Jun-21 14:33N 54°58' E 018°27'1212.0
2016-Jun-21 13:33N 54°53' E 018°45'1212.2
2016-Jun-21 12:34N 54°45' E 019°02'1111.4
2016-Jun-21 11:34N 54°34' E 019°05'1110.3
2016-Jun-21 10:32N 54°25' E 018°55'4 4.2
2016-Jun-21 09:33N 54°25' E 018°48'3 2.7
2016-Jun-21 08:31N 54°24' E 018°43'0 0.0
2016-Jun-21 07:31N 54°24' E 018°43'0 0.0
2016-Jun-21 04:31N 54°24' E 018°43'0 0.0
2016-Jun-21 03:31N 54°24' E 018°43'0 0.0
2016-Jun-21 02:31N 54°24' E 018°43'0 0.0
2016-Jun-21 01:31N 54°24' E 018°43'0 0.0
2016-Jun-21 00:31N 54°24' E 018°43'0 0.0
2016-Jun-20 23:31N 54°24' E 018°43'0 0.0
2016-Jun-20 22:31N 54°24' E 018°43'0 0.0
2016-Jun-20 21:31N 54°24' E 018°43'0 0.0
2016-Jun-20 20:31N 54°24' E 018°43'0 0.0
2016-Jun-20 19:31N 54°24' E 018°43'0 0.0
2016-Jun-20 18:31N 54°24' E 018°43'0 0.0
2016-Jun-20 17:31N 54°24' E 018°43'0 0.0
2016-Jun-20 16:31N 54°24' E 018°43'0 0.0
2016-Jun-20 15:31N 54°24' E 018°43'0 0.0
2016-Jun-20 14:31N 54°24' E 018°43'0 0.0
2016-Jun-20 13:31N 54°24' E 018°43'0 0.0
2016-Jun-20 12:31N 54°24' E 018°43'0 0.0
2016-Jun-20 11:31N 54°24' E 018°43'0 0.0
2016-Jun-20 10:31N 54°24' E 018°43'0 0.0
2016-Jun-20 09:31N 54°24' E 018°43'1 0.7
2016-Jun-20 08:34N 54°24' E 018°44'10 9.7
2016-Jun-20 07:33N 54°29' E 018°58'1212.0
2016-Jun-20 06:34N 54°41' E 019°02'1312.6
2016-Jun-20 05:33N 54°52' E 018°53'1212.5
2016-Jun-20 04:33N 54°59' E 018°35'1211.6
2016-Jun-20 03:34N 55°01' E 018°15'1312.6
2016-Jun-20 02:33N 54°58' E 017°54'1312.6
2016-Jun-20 01:34N 54°54' E 017°33'12212.2
2016-Jun-19 15:33N 54°41' E 014°02'1212.5
2016-Jun-19 14:33N 54°49' E 013°45'3712.5
2016-Jun-19 11:34N 55°13' E 012°55'1211.7
2016-Jun-19 10:34N 55°20' E 012°38'1211.6
2016-Jun-19 09:34N 55°31' E 012°42'1010.4
2016-Jun-19 08:34N 55°41' E 012°38'0 0.0
2016-Jun-19 07:31N 55°41' E 012°38'0 0.0
2016-Jun-19 06:28N 55°41' E 012°38'0 0.0
2016-Jun-19 05:31N 55°41' E 012°38'0 0.0
2016-Jun-19 04:31N 55°41' E 012°38'0 0.0
2016-Jun-19 03:31N 55°41' E 012°38'0 0.0
2016-Jun-19 02:31N 55°41' E 012°38'0 0.0
2016-Jun-19 01:31N 55°41' E 012°38'0 0.0
2016-Jun-19 00:31N 55°41' E 012°38'0 0.0
2016-Jun-18 23:31N 55°41' E 012°38'0 0.0
2016-Jun-18 22:31N 55°41' E 012°38'0 0.0
2016-Jun-18 21:31N 55°41' E 012°38'0 0.0
2016-Jun-18 20:31N 55°41' E 012°38'0 0.0
2016-Jun-18 19:31N 55°41' E 012°38'0 0.0
2016-Jun-18 18:31N 55°41' E 012°38'0 0.0
2016-Jun-18 17:31N 55°41' E 012°38'0 0.0
2016-Jun-18 16:31N 55°41' E 012°38'0 0.0
2016-Jun-18 15:31N 55°41' E 012°38'0 0.0
2016-Jun-18 14:31N 55°41' E 012°38'0 0.0
2016-Jun-18 13:31N 55°41' E 012°38'0 0.0
2016-Jun-18 12:31N 55°41' E 012°38'0 0.0
2016-Jun-18 11:31N 55°41' E 012°38'0 0.5
2016-Jun-18 10:33N 55°42' E 012°38'1110.5
2016-Jun-18 09:33N 55°52' E 012°41'1110.6
2016-Jun-18 08:33N 56°02' E 012°39'1010.1
2016-Jun-18 07:33N 56°09' E 012°26'8 7.9
2016-Jun-18 06:33N 56°11' E 012°12'2 1.7
2016-Jun-18 05:33N 56°11' E 012°15'2 1.6
2016-Jun-18 04:33N 56°13' E 012°13'2210.9
2016-Jun-18 02:33N 56°32' E 011°56'1211.9
2016-Jun-18 01:33N 56°44' E 011°51'1211.6
2016-Jun-18 00:33N 56°55' E 011°46'1211.7
2016-Jun-17 23:33N 57°06' E 011°39'1211.6
2016-Jun-17 22:33N 57°17' E 011°31'1211.9
2016-Jun-17 21:33N 57°28' E 011°23'1211.8
2016-Jun-17 20:33N 57°36' E 011°07'9 9.2
2016-Jun-17 19:33N 57°45' E 011°05'1212.3
2016-Jun-17 18:33N 57°56' E 010°56'1211.8
2016-Jun-17 17:33N 57°57' E 010°34'1212.2
2016-Jun-17 16:33N 57°57' E 010°10'1212.4
2016-Jun-17 15:33N 57°54' E 009°48'1312.5
2016-Jun-17 14:32N 57°49' E 009°26'6112.0
2016-Jun-17 09:29N 57°35' E 007°35'3511.9
2016-Jun-17 06:33N 57°39' E 006°30'1312.5
2016-Jun-17 05:29N 57°48' E 006°11'1112.0
2016-Jun-17 04:33N 57°55' E 005°55'4911.8
2016-Jun-17 00:27N 58°28' E 004°48'1112.1
2016-Jun-16 23:33N 58°36' E 004°34'  

Dump ship's entire track history